createdAt,value
2023-04-12T00:01:40.643Z,100625.06
2023-04-12T00:04:12.262Z,100625.78
2023-04-12T00:06:44.201Z,100619.91
2023-04-12T00:09:15.680Z,100615.19
2023-04-12T00:11:47.484Z,100617.34
2023-04-12T00:14:18.968Z,100604.88
2023-04-12T00:16:50.776Z,100607.88
2023-04-12T00:19:22.248Z,100604.94
2023-04-12T00:21:54.143Z,100607.75
2023-04-12T00:24:25.651Z,100608.81
2023-04-12T00:26:57.286Z,100606.38
2023-04-12T00:29:28.756Z,100606.09
2023-04-12T00:32:00.586Z,100602.81
2023-04-12T00:34:32.060Z,100600.53
2023-04-12T00:37:03.899Z,100602.34
2023-04-12T00:39:35.351Z,100596.72
2023-04-12T00:42:07.001Z,100602.19
2023-04-12T00:44:38.616Z,100602.06
2023-04-12T00:47:10.272Z,100601.41
2023-04-12T00:49:41.756Z,100609.00
2023-04-12T00:52:13.611Z,100602.09
2023-04-12T00:54:45.076Z,100603.28
2023-04-12T00:57:16.869Z,100598.31
2023-04-12T00:59:48.373Z,100600.66
2023-04-12T01:02:20.425Z,100599.38
2023-04-12T01:04:51.927Z,100596.91
2023-04-12T01:07:23.758Z,100583.56
2023-04-12T01:09:55.230Z,100586.72
2023-04-12T01:12:27.056Z,100584.75
2023-04-12T01:14:58.544Z,100577.00
2023-04-12T01:17:30.162Z,100565.50
2023-04-12T01:20:01.732Z,100566.81
2023-04-12T01:22:33.233Z,100564.38
2023-04-12T01:25:04.723Z,100561.09
2023-04-12T01:27:36.206Z,100566.34
2023-04-12T01:30:07.676Z,100560.44
2023-04-12T01:32:39.520Z,100565.88
2023-04-12T01:35:11.014Z,100564.25
2023-04-12T01:37:42.839Z,100562.94
2023-04-12T01:40:14.296Z,100547.50
2023-04-12T01:42:46.060Z,100553.13
2023-04-12T01:45:17.555Z,100553.44
2023-04-12T01:47:49.356Z,100553.78
2023-04-12T01:50:20.943Z,100558.91
2023-04-12T01:52:52.777Z,100561.88
2023-04-12T01:55:24.268Z,100568.31
2023-04-12T01:57:56.037Z,100553.50
2023-04-12T02:00:27.498Z,100561.09
2023-04-12T02:02:59.494Z,100562.94
2023-04-12T02:05:31.159Z,100558.97
2023-04-12T02:08:02.651Z,100548.63
2023-04-12T02:10:34.143Z,100549.97
2023-04-12T02:13:05.969Z,100541.41
2023-04-12T02:15:37.459Z,100545.03
2023-04-12T02:18:09.251Z,100545.69
2023-04-12T02:20:40.817Z,100539.97
2023-04-12T02:23:12.602Z,100538.16
2023-04-12T02:25:44.065Z,100528.97
2023-04-12T02:28:15.920Z,100532.91
2023-04-12T02:30:47.391Z,100524.22
2023-04-12T02:33:19.250Z,100530.66
2023-04-12T02:35:50.793Z,100520.66
2023-04-12T02:38:22.465Z,100524.56
2023-04-12T02:40:53.922Z,100516.03
2023-04-12T02:43:25.876Z,100509.31
2023-04-12T02:45:57.365Z,100505.69
2023-04-12T02:48:28.865Z,100501.25
2023-04-12T02:51:00.325Z,100495.84
2023-04-12T02:53:31.809Z,100498.16
2023-04-12T02:56:04.858Z,100498.13
2023-04-12T02:58:37.914Z,100497.66
2023-04-12T03:01:09.401Z,100497.81
2023-04-12T03:03:41.002Z,100493.56
2023-04-12T03:06:12.690Z,100486.50
2023-04-12T03:08:44.462Z,100490.44
2023-04-12T03:11:15.961Z,100478.78
2023-04-12T03:13:47.450Z,100477.13
2023-04-12T03:16:19.320Z,100476.31
2023-04-12T03:18:50.809Z,100473.84
2023-04-12T03:21:22.648Z,100465.31
2023-04-12T03:23:54.156Z,100470.91
2023-04-12T03:26:26.034Z,100463.19
2023-04-12T03:28:57.506Z,100467.63
2023-04-12T03:31:29.035Z,100464.19
2023-04-12T03:34:00.523Z,100456.31
2023-04-12T03:36:32.001Z,100454.50
2023-04-12T03:39:03.527Z,100442.19
2023-04-12T03:41:35.087Z,100434.94
2023-04-12T03:44:06.557Z,100426.06
2023-04-12T03:46:38.560Z,100421.16
2023-04-12T03:49:10.031Z,100420.19
2023-04-12T03:51:42.007Z,100417.75
2023-04-12T03:54:14.468Z,100417.09
2023-04-12T03:56:46.489Z,100423.34
2023-04-12T03:59:18.004Z,100414.81
2023-04-12T04:01:49.831Z,100415.44
2023-04-12T04:04:21.492Z,100408.88
2023-04-12T04:06:53.424Z,100405.44
2023-04-12T04:09:24.871Z,100402.31
2023-04-12T04:11:56.355Z,100394.44
2023-04-12T04:14:27.814Z,100404.94
2023-04-12T04:16:59.645Z,100404.28
2023-04-12T04:19:31.121Z,100410.38
2023-04-12T04:22:02.969Z,100413.19
2023-04-12T04:24:34.455Z,100413.81
2023-04-12T04:27:06.236Z,100423.03
2023-04-12T04:29:37.688Z,100411.53
2023-04-12T04:32:09.498Z,100410.88
2023-04-12T04:34:40.961Z,100406.91
2023-04-12T04:37:12.740Z,100411.81
2023-04-12T04:39:44.200Z,100410.19
2023-04-12T04:42:15.847Z,100401.50
2023-04-12T04:44:47.488Z,100403.63
2023-04-12T04:47:19.366Z,100400.34
2023-04-12T04:49:50.830Z,100394.25
2023-04-12T04:52:22.644Z,100389.97
2023-04-12T04:54:54.088Z,100397.69
2023-04-12T04:57:25.858Z,100395.66
2023-04-12T04:59:57.305Z,100392.69
2023-04-12T05:02:28.836Z,100387.91
2023-04-12T05:05:00.370Z,100382.94
2023-04-12T05:07:32.010Z,100380.09
2023-04-12T05:10:03.468Z,100383.66
2023-04-12T05:12:34.939Z,100382.63
2023-04-12T05:15:11.621Z,100380.78
2023-04-12T05:17:43.871Z,100380.97
2023-04-12T05:20:15.345Z,100378.56
2023-04-12T05:22:46.872Z,100377.63
2023-04-12T05:25:18.322Z,100374.41
2023-04-12T05:27:51.905Z,100379.16
2023-04-12T05:30:23.700Z,100374.19
2023-04-12T05:32:55.281Z,100367.16
2023-04-12T05:35:26.821Z,100361.53
2023-04-12T05:37:58.608Z,100353.47
2023-04-12T05:40:30.103Z,100362.72
2023-04-12T05:43:01.858Z,100352.69
2023-04-12T05:45:33.350Z,100355.91
2023-04-12T05:48:04.891Z,100349.22
2023-04-12T05:50:36.431Z,100347.81
2023-04-12T05:53:08.250Z,100343.84
2023-04-12T05:55:39.713Z,100328.16
2023-04-12T05:58:11.528Z,100334.59
2023-04-12T06:00:43.024Z,100325.84
2023-04-12T06:03:15.088Z,100320.47
2023-04-12T06:05:46.685Z,100319.53
2023-04-12T06:08:18.688Z,100314.91
2023-04-12T06:10:50.139Z,100306.00
2023-04-12T06:13:21.943Z,100299.56
2023-04-12T06:15:53.453Z,100297.16
2023-04-12T06:18:25.222Z,100291.06
2023-04-12T06:20:56.670Z,100298.22
2023-04-12T06:23:29.293Z,100291.88
2023-04-12T06:26:00.729Z,100281.91
2023-04-12T06:28:32.190Z,100274.34
2023-04-12T06:31:03.665Z,100280.47
2023-04-12T06:33:35.154Z,100277.97
2023-04-12T06:36:06.649Z,100270.19
2023-04-12T06:38:38.421Z,100265.16
2023-04-12T06:41:10.036Z,100119.31
2023-04-12T06:43:41.730Z,100267.69
2023-04-12T06:46:13.178Z,100268.53
2023-04-12T06:48:45.121Z,100267.31
2023-04-12T06:51:16.560Z,100263.53
2023-04-12T06:53:48.340Z,100257.72
2023-04-12T06:56:19.816Z,100258.91
2023-04-12T06:58:51.756Z,100246.72
2023-04-12T07:01:23.296Z,100258.44
2023-04-12T07:03:55.222Z,100242.34
2023-04-12T07:06:26.812Z,100240.03
2023-04-12T07:08:58.974Z,100240.41
2023-04-12T07:11:30.641Z,100237.03
2023-04-12T07:14:02.439Z,100229.41
2023-04-12T07:16:33.950Z,100227.91
2023-04-12T07:19:05.764Z,100224.53
2023-04-12T07:21:37.225Z,100222.28
2023-04-12T07:24:09.037Z,100220.72
2023-04-12T07:26:40.974Z,100220.16
2023-04-12T07:29:12.439Z,100216.56
2023-04-12T07:31:44.272Z,100206.47
2023-04-12T07:34:15.843Z,100202.66
2023-04-12T07:36:47.401Z,100202.16
2023-04-12T07:39:18.900Z,100199.13
2023-04-12T07:41:50.562Z,100195.66
2023-04-12T07:44:22.019Z,100193.63
2023-04-12T07:46:53.876Z,100191.78
2023-04-12T07:49:25.350Z,100190.47
2023-04-12T07:51:57.122Z,100182.22
2023-04-12T07:54:28.606Z,100176.72
2023-04-12T07:57:00.397Z,100176.06
2023-04-12T07:59:31.859Z,100162.53
2023-04-12T08:02:03.982Z,100142.16
2023-04-12T08:04:35.629Z,100166.69
2023-04-12T08:07:07.377Z,100156.97
2023-04-12T08:09:38.817Z,100154.63
2023-04-12T08:12:10.264Z,100150.81
2023-04-12T08:14:41.718Z,100152.19
2023-04-12T08:17:13.225Z,100142.09
2023-04-12T08:19:44.684Z,100134.69
2023-04-12T08:22:16.493Z,100139.63
2023-04-12T08:24:47.960Z,100134.09
2023-04-12T08:27:19.425Z,100130.91
2023-04-12T08:29:50.894Z,100126.66
2023-04-12T08:32:22.391Z,100130.66
2023-04-12T08:34:53.907Z,100121.72
2023-04-12T08:37:25.756Z,100116.13
2023-04-12T08:39:57.234Z,100106.94
2023-04-12T08:42:29.746Z,100117.47
2023-04-12T08:45:01.209Z,100114.66
2023-04-12T08:47:32.702Z,100105.50
2023-04-12T08:50:04.209Z,100096.91
2023-04-12T08:52:35.703Z,100096.75
2023-04-12T08:55:07.161Z,100095.06
2023-04-12T08:57:38.945Z,100095.34
2023-04-12T09:00:10.435Z,100098.88
2023-04-12T09:02:42.179Z,100095.94
2023-04-12T09:05:13.849Z,100089.78
2023-04-12T09:07:45.579Z,100086.13
2023-04-12T09:10:17.200Z,100088.19
2023-04-12T09:12:50.288Z,100080.06
2023-04-12T09:15:23.173Z,100070.09
2023-04-12T09:17:54.880Z,100063.72
2023-04-12T09:20:26.360Z,100061.50
2023-04-12T09:22:58.162Z,100058.50
2023-04-12T09:25:29.677Z,100052.69
2023-04-12T09:28:01.488Z,100054.34
2023-04-12T09:30:32.934Z,100045.41
2023-04-12T09:33:04.775Z,100039.03
2023-04-12T09:35:36.372Z,100026.66
2023-04-12T09:38:09.058Z,100025.97
2023-04-12T09:40:40.761Z,100012.53
2023-04-12T09:43:12.233Z,100020.31
2023-04-12T09:45:44.063Z,100002.81
2023-04-12T09:48:15.618Z,100013.03
2023-04-12T09:50:47.529Z,99996.34
2023-04-12T09:53:19.031Z,100001.22
2023-04-12T09:55:50.825Z,99982.88
2023-04-12T09:58:22.285Z,99984.53
2023-04-12T10:00:53.748Z,99983.75
2023-04-12T10:03:25.319Z,99968.69
2023-04-12T10:05:57.236Z,99959.44
2023-04-12T10:08:28.713Z,99958.22
2023-04-12T10:11:00.626Z,99948.91
2023-04-12T10:13:32.097Z,99949.00
2023-04-12T10:16:03.610Z,99937.09
2023-04-12T10:18:35.074Z,99934.66
2023-04-12T10:21:06.752Z,99931.78
2023-04-12T10:23:38.187Z,99919.28
2023-04-12T10:26:09.820Z,99915.41
2023-04-12T10:28:41.282Z,99909.78
2023-04-12T10:31:13.144Z,99903.94
2023-04-12T10:33:44.642Z,99907.72
2023-04-12T10:36:16.849Z,99901.59
2023-04-12T10:38:48.349Z,99882.59
2023-04-12T10:41:20.185Z,99886.88
2023-04-12T10:43:51.648Z,99877.53
2023-04-12T10:46:23.173Z,99876.28
2023-04-12T10:48:54.766Z,99877.56
2023-04-12T10:51:26.741Z,99868.16
2023-04-12T10:53:58.265Z,99862.06
2023-04-12T10:56:32.049Z,99856.88
2023-04-12T10:59:04.489Z,99848.84
2023-04-12T11:01:38.636Z,99847.31
2023-04-12T11:04:11.074Z,99843.78
2023-04-12T11:06:43.055Z,99841.28
2023-04-12T11:09:14.896Z,99826.13
2023-04-12T11:11:46.352Z,99840.84
2023-04-12T11:14:18.281Z,99831.75
2023-04-12T11:16:49.808Z,99832.66
2023-04-12T11:19:21.531Z,99816.31
2023-04-12T11:21:53.032Z,99815.44
2023-04-12T11:24:24.515Z,99806.16
2023-04-12T11:26:55.969Z,99800.56
2023-04-12T11:29:27.727Z,99795.25
2023-04-12T11:31:59.189Z,99806.94
2023-04-12T11:34:30.679Z,99793.78
2023-04-12T11:37:02.301Z,99788.56
2023-04-12T11:39:35.475Z,99784.78
2023-04-12T11:42:09.899Z,99782.66
2023-04-12T11:44:56.012Z,99790.00
2023-04-12T11:47:29.548Z,99769.09
2023-04-12T11:50:01.441Z,99766.41
2023-04-12T11:52:32.917Z,99763.00
2023-04-12T11:55:04.716Z,99754.69
2023-04-12T11:57:36.230Z,99752.59
2023-04-12T12:00:08.178Z,99747.41
2023-04-12T12:02:49.034Z,99737.53
2023-04-12T12:05:28.143Z,99734.59
2023-04-12T12:08:01.252Z,99725.94
2023-04-12T12:13:10.123Z,99712.19
2023-04-12T12:15:41.682Z,99716.41
2023-04-12T12:18:13.524Z,99709.13
2023-04-12T12:20:44.997Z,99693.50
2023-04-12T12:23:16.459Z,99694.22
2023-04-12T12:25:47.921Z,99682.34
2023-04-12T12:28:19.657Z,99679.72
2023-04-12T12:30:51.217Z,99676.38
2023-04-12T12:33:29.090Z,99673.38
2023-04-12T12:36:10.525Z,99665.47
2023-04-12T12:38:42.399Z,99657.94
2023-04-12T12:41:13.860Z,99662.44
2023-04-12T12:43:45.800Z,99657.09
2023-04-12T12:46:17.375Z,99655.38
2023-04-12T12:48:49.140Z,99656.50
2023-04-12T12:51:20.591Z,99654.31
2023-04-12T12:53:52.436Z,99645.84
2023-04-12T12:56:23.913Z,99640.75
2023-04-12T12:58:56.027Z,99632.88
2023-04-12T13:01:27.741Z,99636.13
2023-04-12T13:03:59.817Z,99629.69
2023-04-12T13:06:31.334Z,99627.38
2023-04-12T13:09:02.780Z,99616.38
2023-04-12T13:11:34.236Z,99611.63
2023-04-12T13:14:06.039Z,99609.03
2023-04-12T13:16:37.539Z,99610.50
2023-04-12T13:19:09.340Z,99610.00
2023-04-12T13:21:40.825Z,99601.16
2023-04-12T13:24:12.460Z,99603.91
2023-04-12T13:26:43.965Z,99594.50
2023-04-12T13:29:15.435Z,99583.09
2023-04-12T13:31:46.925Z,99583.56
2023-04-12T13:34:18.825Z,99579.28
2023-04-12T13:36:50.334Z,99579.75
2023-04-12T13:39:22.126Z,99576.69
2023-04-12T13:41:53.606Z,99576.38
2023-04-12T13:44:25.083Z,99571.22
2023-04-12T13:46:56.513Z,99573.97
2023-04-12T13:49:28.564Z,99557.81
2023-04-12T13:52:00.025Z,99561.47
2023-04-12T13:54:31.597Z,99549.00
2023-04-12T13:57:03.035Z,99557.28
2023-04-12T13:59:34.494Z,99549.81
2023-04-12T14:02:06.004Z,99543.78
2023-04-12T14:04:37.830Z,99546.22
2023-04-12T14:07:09.335Z,99531.13
2023-04-12T14:09:41.321Z,99535.84
2023-04-12T14:12:12.785Z,99528.94
2023-04-12T14:14:44.482Z,99533.56
2023-04-12T14:17:15.959Z,99524.53
2023-04-12T14:19:47.827Z,99529.03
2023-04-12T14:22:19.290Z,99531.88
2023-04-12T14:24:51.022Z,99534.75
2023-04-12T14:27:22.564Z,99525.63
2023-04-12T14:29:54.305Z,99519.81
2023-04-12T14:32:25.830Z,99512.94
2023-04-12T14:34:57.353Z,99536.53
2023-04-12T14:37:28.802Z,99537.31
2023-04-12T14:40:00.280Z,99537.09
2023-04-12T14:42:31.768Z,99542.44
2023-04-12T14:45:03.269Z,99537.66
2023-04-12T14:47:34.792Z,99549.38
2023-04-12T14:50:06.247Z,99548.88
2023-04-12T14:52:37.904Z,99554.72
2023-04-12T14:55:09.410Z,99550.22
2023-04-12T14:57:41.021Z,99538.75
2023-04-12T15:00:12.466Z,99550.53
2023-04-12T15:02:44.073Z,99543.06
2023-04-12T15:05:15.922Z,99566.38
2023-04-12T15:07:48.641Z,99563.97
2023-04-12T15:10:20.792Z,99558.31
2023-04-12T15:12:52.536Z,99572.22
2023-04-12T15:15:23.971Z,99574.63
2023-04-12T15:17:55.692Z,99573.88
2023-04-12T15:20:27.177Z,99574.03
2023-04-12T15:22:59.019Z,99576.78
2023-04-12T15:25:30.475Z,99574.06
2023-04-12T15:28:01.927Z,99575.69
2023-04-12T15:30:33.366Z,99570.16
2023-04-12T15:33:05.003Z,99570.06
2023-04-12T15:35:36.498Z,99565.31
2023-04-12T15:38:08.071Z,99564.19
2023-04-12T15:40:39.512Z,99563.03
2023-04-12T15:43:11.189Z,99565.16
2023-04-12T15:45:42.756Z,99560.69
2023-04-12T15:48:14.732Z,99554.25
2023-04-12T15:50:46.203Z,99549.34
2023-04-12T15:53:17.908Z,99552.91
2023-04-12T15:55:49.356Z,99556.13
2023-04-12T15:58:20.803Z,99560.00
2023-04-12T16:00:52.245Z,99551.44
2023-04-12T16:03:24.121Z,99544.44
2023-04-12T16:05:55.668Z,99535.97
2023-04-12T16:08:27.370Z,99536.59
2023-04-12T16:10:58.854Z,99529.72
2023-04-12T16:13:30.315Z,99533.25
2023-04-12T16:16:01.887Z,99522.75
2023-04-12T16:18:33.368Z,99519.59
2023-04-12T16:21:04.807Z,99519.50
2023-04-12T16:23:36.280Z,99519.06
2023-04-12T16:26:07.733Z,99525.72
2023-04-12T16:28:39.545Z,99524.13
2023-04-12T16:31:11.091Z,99520.19
2023-04-12T16:33:45.142Z,99516.25
2023-04-12T16:36:16.813Z,99511.38
2023-04-12T16:38:48.713Z,99510.22
2023-04-12T16:41:20.464Z,99517.69
2023-04-12T16:43:51.923Z,99513.00
2023-04-12T16:46:23.625Z,99505.00
2023-04-12T16:48:55.274Z,99505.16
2023-04-12T16:51:26.827Z,99502.22
2023-04-12T16:53:58.567Z,99503.94
2023-04-12T16:56:30.295Z,99507.53
2023-04-12T16:59:01.765Z,99496.72
2023-04-12T17:01:33.244Z,99495.56
2023-04-12T17:04:04.928Z,99494.09
2023-04-12T17:06:36.933Z,99491.59
2023-04-12T17:09:09.452Z,99494.56
2023-04-12T17:11:40.931Z,99490.03
2023-04-12T17:14:12.394Z,99488.97
2023-04-12T17:16:44.087Z,99480.63
2023-04-12T17:19:15.680Z,99472.22
2023-04-12T17:21:47.173Z,99476.47
2023-04-12T17:24:18.704Z,99469.41
2023-04-12T17:26:50.189Z,99463.59
2023-04-12T17:29:21.979Z,99464.63
2023-04-12T17:31:55.066Z,99460.63
2023-04-12T17:34:26.662Z,99463.84
2023-04-12T17:36:58.143Z,99465.75
2023-04-12T17:39:29.615Z,99458.56
2023-04-12T17:42:01.447Z,99448.91
2023-04-12T17:44:32.932Z,99452.78
2023-04-12T17:47:04.771Z,99444.88
2023-04-12T17:49:36.253Z,99442.38
2023-04-12T17:52:07.940Z,99443.50
2023-04-12T17:54:39.417Z,99446.22
2023-04-12T17:57:10.963Z,99457.69
2023-04-12T17:59:42.433Z,99450.94
2023-04-12T18:02:14.391Z,99449.41
2023-04-12T18:04:46.094Z,99459.22
2023-04-12T18:07:18.152Z,99458.59
2023-04-12T18:09:49.619Z,99456.22
2023-04-12T18:12:21.434Z,99460.50
2023-04-12T18:14:53.114Z,99456.16
2023-04-12T18:17:26.444Z,99459.19
2023-04-12T18:19:59.982Z,99450.88
2023-04-12T18:22:32.727Z,99443.41
2023-04-12T18:25:04.209Z,99442.28
2023-04-12T18:27:35.692Z,99450.63
2023-04-12T18:30:07.589Z,99447.41
2023-04-12T18:32:39.132Z,99453.75
2023-04-12T18:35:11.035Z,99447.06
2023-04-12T18:37:42.687Z,99453.25
2023-04-12T18:40:14.412Z,99449.53
2023-04-12T18:42:45.963Z,99448.38
2023-04-12T18:45:17.792Z,99448.31
2023-04-12T18:47:49.345Z,99448.81
2023-04-12T18:50:21.211Z,99449.38
2023-04-12T18:52:52.664Z,99439.16
2023-04-12T18:55:24.569Z,99445.47
2023-04-12T18:57:56.051Z,99438.13
2023-04-12T19:00:27.945Z,99435.94
2023-04-12T19:02:59.533Z,99450.78
2023-04-12T19:05:31.108Z,99450.25
2023-04-12T19:08:02.596Z,99453.66
2023-04-12T19:10:34.071Z,99447.03
2023-04-12T19:13:05.537Z,99445.41
2023-04-12T19:15:37.243Z,99440.13
2023-04-12T19:18:08.797Z,99400.94
2023-04-12T19:20:40.388Z,99437.97
2023-04-12T19:23:11.877Z,99431.84
2023-04-12T19:25:43.664Z,99420.94
2023-04-12T19:28:15.188Z,99430.19
2023-04-12T19:30:46.982Z,99428.56
2023-04-12T19:33:18.489Z,99423.03
2023-04-12T19:35:50.296Z,99431.47
2023-04-12T19:38:21.784Z,99425.34
2023-04-12T19:40:53.449Z,99417.53
2023-04-12T19:43:24.937Z,99412.84
2023-04-12T19:45:56.663Z,99414.84
2023-04-12T19:48:28.516Z,99408.91
2023-04-12T19:51:00.002Z,99401.19
2023-04-12T19:53:31.497Z,99401.19
2023-04-12T19:56:03.002Z,99400.88
2023-04-12T19:58:34.516Z,99394.00
2023-04-12T20:01:05.996Z,99396.66
2023-04-12T20:03:37.739Z,99389.72
2023-04-12T20:06:09.224Z,99389.88
2023-04-12T20:08:41.034Z,99384.91
2023-04-12T20:11:12.492Z,99383.50
2023-04-12T20:13:43.990Z,99388.03
2023-04-12T20:16:15.449Z,99388.28
2023-04-12T20:18:47.268Z,99383.75
2023-04-12T20:21:18.737Z,99374.72
2023-04-12T20:23:50.589Z,99382.88
2023-04-12T20:26:22.061Z,99375.75
2023-04-12T20:28:53.782Z,99369.38
2023-04-12T20:31:25.345Z,99365.06
2023-04-12T20:33:57.039Z,99355.16
2023-04-12T20:36:28.523Z,99348.22
2023-04-12T20:39:00.478Z,99345.25
2023-04-12T20:41:32.057Z,99354.53
2023-04-12T20:44:04.008Z,99354.47
2023-04-12T20:46:36.748Z,99359.50
2023-04-12T20:49:08.800Z,99360.00
2023-04-12T20:51:40.276Z,99354.53
2023-04-12T20:54:12.104Z,99359.59
2023-04-12T20:56:43.575Z,99356.50
2023-04-12T20:59:15.375Z,99347.72
2023-04-12T21:01:46.980Z,99350.06
2023-04-12T21:04:18.956Z,99349.13
2023-04-12T21:06:50.474Z,99355.72
2023-04-12T21:09:22.316Z,99348.25
2023-04-12T21:11:53.774Z,99356.69
2023-04-12T21:14:25.601Z,99348.63
2023-04-12T21:16:57.064Z,99356.06
2023-04-12T21:19:28.557Z,99354.75
2023-04-12T21:22:00.005Z,99356.22
2023-04-12T21:24:31.560Z,99352.19
2023-04-12T21:27:03.025Z,99353.97
2023-04-12T21:29:34.526Z,99355.59
2023-04-12T21:32:06.131Z,99355.59
2023-04-12T21:34:38.165Z,99357.53
2023-04-12T21:37:09.646Z,99358.41
2023-04-12T21:39:41.457Z,99354.84
2023-04-12T21:42:13.000Z,99354.06
2023-04-12T21:44:44.892Z,99359.06
2023-04-12T21:47:16.366Z,99358.50
2023-04-12T21:49:48.095Z,99360.09
2023-04-12T21:52:19.557Z,99351.09
2023-04-12T21:54:51.430Z,99350.03
2023-04-12T21:57:22.917Z,99340.28
2023-04-12T21:59:54.641Z,99345.75
2023-04-12T22:02:26.172Z,99345.19
2023-04-12T22:04:58.223Z,99338.19
2023-04-12T22:07:29.799Z,99338.75
2023-04-12T22:10:01.594Z,99333.94
2023-04-12T22:12:33.048Z,99329.25
2023-04-12T22:15:04.884Z,99341.75
2023-04-12T22:17:36.362Z,99340.63
2023-04-12T22:20:07.902Z,99340.44
2023-04-12T22:22:39.398Z,99344.63
2023-04-12T22:25:10.896Z,99350.44
2023-04-12T22:27:42.351Z,99354.72
2023-04-12T22:30:14.207Z,99362.75
2023-04-12T22:32:45.733Z,99363.66
2023-04-12T22:35:17.604Z,99367.69
2023-04-12T22:37:49.074Z,99380.97
2023-04-12T22:40:20.860Z,99373.31
2023-04-12T22:42:52.363Z,99375.75
2023-04-12T22:45:23.846Z,99370.91
2023-04-12T22:47:55.355Z,99371.72
2023-04-12T22:50:26.877Z,99351.09
2023-04-12T22:52:58.349Z,99341.41
2023-04-12T22:55:29.902Z,99337.88
2023-04-12T22:58:01.345Z,99353.59
2023-04-12T23:00:32.821Z,99351.22
2023-04-12T23:03:04.517Z,99367.19
2023-04-12T23:05:36.116Z,99353.81
2023-04-12T23:08:07.635Z,99363.31
2023-04-12T23:10:39.593Z,99364.59
2023-04-12T23:13:11.070Z,99366.13
2023-04-12T23:15:42.655Z,99361.38
2023-04-12T23:18:14.147Z,99344.63
2023-04-12T23:20:45.964Z,99344.06
2023-04-12T23:23:17.413Z,99354.63
2023-04-12T23:25:49.221Z,99353.47
2023-04-12T23:28:20.690Z,99346.81
2023-04-12T23:30:52.461Z,99338.47
2023-04-12T23:33:23.938Z,99336.88
2023-04-12T23:35:55.765Z,99343.22
2023-04-12T23:38:27.270Z,99342.66
2023-04-12T23:40:59.179Z,99348.22
2023-04-12T23:43:30.665Z,99360.69
2023-04-12T23:46:02.420Z,99371.00
2023-04-12T23:48:33.910Z,99363.72
2023-04-12T23:51:05.856Z,99221.53
2023-04-12T23:53:37.310Z,99340.72
2023-04-12T23:56:08.805Z,99346.50
2023-04-12T23:58:40.297Z,99343.63
